Flight Track Log - Related Links

Times and Time Zones

All times are in EDT time to prevent confusion due to time zone crossing. See the AWE1628 flight status page for this flight to view local times or setup timezone preferences in your user account.

Time Position Orientation Groundspeed Altitude Reporting Facility
EDT Latitude Longitude Course Direction KTS MPH feet Rate Location/Type
Wed 06:05:15 AM 28.4571 -81.3081 191° South  Level FlightAware Approximate
Wed 06:05:57 AM 28.4167 -81.3167 139° Southeast 180 207 900  Level Orlando TRACON
Wed 06:07:21 AM 28.3500 -81.2500 16° North 261 300 4,100 2,788 Climbing Orlando TRACON
Wed 06:09:15 AM 28.4583 -81.2139 348° North 308 354 10,100 2,621 Climbing Jacksonville Center
Wed 06:10:15 AM 28.5336 -81.2314 345° North 301 346 11,700 2,000 Climbing Jacksonville Center
Wed 06:11:15 AM 28.6278 -81.2606 347° North 319 367 14,100 2,850 Climbing Jacksonville Center
Wed 06:12:15 AM 28.7283 -81.2875 345° North 349 402 17,400 3,000 Climbing Jacksonville Center
Wed 06:13:15 AM 28.8311 -81.3189 347° North 366 421 20,100 2,650 Climbing Jacksonville Center
Wed 06:14:15 AM 28.9378 -81.3481 359° North 380 437 22,700 2,200 Climbing Jacksonville Center
Wed 06:15:15 AM 29.0506 -81.3511 27° Northeast 385 443 24,500 1,750 Climbing Jacksonville Center
Wed 06:16:15 AM 29.1625 -81.2850 27° Northeast 401 461 26,200 1,700 Climbing Jacksonville Center
Wed 06:17:15 AM 29.2806 -81.2164 25° Northeast 437 503 27,900 1,850 Climbing Jacksonville Center
Wed 06:18:15 AM 29.4028 -81.1500 26° Northeast 461 531 29,900 2,150 Climbing Jacksonville Center
Wed 06:19:15 AM 29.5167 -81.0861 27° Northeast 466 536 32,200 2,200 Climbing Jacksonville Center
Wed 06:20:15 AM 29.6328 -81.0194 27° Northeast 461 531 34,300 2,100 Climbing Jacksonville Center
Wed 06:21:15 AM 29.7486 -80.9525 27° Northeast 456 525 36,400 1,550 Climbing Jacksonville Center
Wed 06:22:15 AM 29.8603 -80.8881 26° Northeast 451 519 37,400 950 Climbing Jacksonville Center
Wed 06:23:15 AM 29.9783 -80.8208 26° Northeast 451 519 38,300 800 Climbing Jacksonville Center
Wed 06:24:15 AM 30.0961 -80.7536 26° Northeast 456 525 39,000 350 Climbing Jacksonville Center
Wed 06:25:15 AM 30.2100 -80.6883 25° Northeast 461 531 39,000  Level Jacksonville Center
Wed 06:26:15 AM 30.3278 -80.6233 27° Northeast 461 531 39,000  Level Jacksonville Center
Wed 06:27:15 AM 30.4394 -80.5581 27° Northeast 461 531 39,000  Level Jacksonville Center
Wed 06:28:15 AM 30.5508 -80.4925 26° Northeast 456 525 39,000  Level Jacksonville Center
Wed 06:29:15 AM 30.6603 -80.4294 27° Northeast 445 512 39,000  Level Jacksonville Center
Wed 06:30:15 AM 30.7675 -80.3661 27° Northeast 440 506 39,000  Level Jacksonville Center
Wed 06:31:15 AM 30.8789 -80.3003 25° Northeast 440 506 39,000  Level Jacksonville Center
Wed 06:32:15 AM 30.9967 -80.2364 28° Northeast 446 513 39,000  Level Jacksonville Center
Wed 06:33:15 AM 31.1017 -80.1703 25° Northeast 446 513 39,000  Level Jacksonville Center
Wed 06:34:15 AM 31.2194 -80.1061 26° Northeast 446 513 39,000  Level Jacksonville Center
Wed 06:35:15 AM 31.3369 -80.0394 27° Northeast 452 520 39,000  Level Jacksonville Center
Wed 06:36:15 AM 31.4503 -79.9728 26° Northeast 458 527 39,000  Level Jacksonville Center
Wed 06:37:15 AM 31.5636 -79.9083 28° Northeast 458 527 39,000  Level Jacksonville Center
Wed 06:38:15 AM 31.6767 -79.8386 26° Northeast 458 527 39,000  Level Jacksonville Center
Wed 06:39:15 AM 31.7919 -79.7739 27° Northeast 453 521 39,000  Level Jacksonville Center
Wed 06:40:15 AM 31.9031 -79.7064 27° Northeast 453 521 39,000  Level Jacksonville Center
Wed 06:41:15 AM 32.0142 -79.6389 26° Northeast 453 521 39,000  Level Jacksonville Center
Wed 06:42:15 AM 32.1272 -79.5736 27° Northeast 447 514 39,000  Level Jacksonville Center
Wed 06:43:15 AM 32.2381 -79.5056 26° Northeast 447 514 39,000  Level Jacksonville Center
Wed 06:44:15 AM 32.3472 -79.4425 27° Northeast 442 509 39,000  Level Jacksonville Center
Wed 06:45:15 AM 32.4581 -79.3769 26° Northeast 442 509 39,000  Level Jacksonville Center
Wed 06:46:15 AM 32.5669 -79.3133 27° Northeast 442 509 39,000  Level Jacksonville Center
Wed 06:47:15 AM 32.6756 -79.2475 27° Northeast 442 509 39,000  Level Jacksonville Center
Wed 06:48:15 AM 32.7864 -79.1789 26° Northeast 442 509 39,000  Level Jacksonville Center
Wed 06:49:15 AM 32.8950 -79.1150 28° Northeast 442 509 39,000  Level Jacksonville Center
Wed 06:50:15 AM 33.0056 -79.0458 28° Northeast 442 509 39,000  Level Jacksonville Center
Wed 06:51:15 AM 33.1161 -78.9767 27° Northeast 442 509 39,000  Level Jacksonville Center
Wed 06:52:15 AM 33.2289 -78.9072 27° Northeast 442 509 39,000  Level Jacksonville Center
Wed 06:53:15 AM 33.3394 -78.8400 26° Northeast 442 509 39,000  Level Jacksonville Center
Wed 06:55:01 AM 33.5322 -78.7253 27° Northeast 423 487 39,000  Level Washington Center
Wed 06:56:03 AM 33.6444 -78.6572 27° Northeast 434 499 39,000  Level Washington Center
Wed 06:57:01 AM 33.7567 -78.5889 28° Northeast 440 506 39,000  Level Washington Center
Wed 06:58:00 AM 33.8711 -78.5156 27° Northeast 445 512 39,000  Level Washington Center
Wed 06:59:01 AM 33.9856 -78.4444 27° Northeast 445 512 39,000  Level Washington Center
Wed 07:00:03 AM 34.1019 -78.3733 26° Northeast 455 524 39,000  Level Washington Center
Wed 07:01:01 AM 34.2206 -78.3019 29° Northeast 455 524 39,000  Level Washington Center
Wed 07:02:02 AM 34.3347 -78.2253 27° Northeast 460 529 39,000  Level Washington Center
Wed 07:03:02 AM 34.4511 -78.1533 28° Northeast 460 529 39,000  Level Washington Center
Wed 07:04:01 AM 34.5697 -78.0764 27° Northeast 460 529 39,000  Level Washington Center
Wed 07:05:01 AM 34.6964 -77.9969 27° Northeast 460 529 39,000 -694 Level Washington Center
Wed 07:06:02 AM 34.8125 -77.9244 29° Northeast 460 529 37,600 -1,438 Descending Washington Center
Wed 07:07:02 AM 34.9311 -77.8442 29° Northeast 466 536 36,100 -1,500 Descending Washington Center
Wed 07:08:02 AM 35.0431 -77.7686 27° Northeast 466 536 34,600 -1,388 Descending Washington Center
Wed 07:09:03 AM 35.1675 -77.6908 28° Northeast 471 542 33,300 -807 Descending Washington Center
Wed 07:10:01 AM 35.2856 -77.6150 30° Northeast 476 548 33,000 -151 Descending Washington Center
Wed 07:11:02 AM 35.4058 -77.5289 35° Northeast 490 564 33,000  Level Washington Center
Wed 07:12:03 AM 35.5203 -77.4319 36° Northeast 501 577 33,000  Level Washington Center
Wed 07:13:01 AM 35.6344 -77.3300 35° Northeast 506 582 33,000  Level Washington Center
Wed 07:14:02 AM 35.7483 -77.2300 35° Northeast 506 582 33,000  Level Washington Center
Wed 07:15:00 AM 35.8539 -77.1372 36° Northeast 506 582 33,000  Level Washington Center
Wed 07:16:01 AM 35.9636 -77.0394 36° Northeast 496 571 33,000  Level Washington Center
Wed 07:17:01 AM 36.0775 -76.9386 36° Northeast 496 571 33,000  Level Washington Center
Wed 07:18:02 AM 36.1914 -76.8378 36° Northeast 496 571 33,000  Level Washington Center
Wed 07:19:03 AM 36.3050 -76.7364 36° Northeast 501 577 33,000  Level Washington Center
Wed 07:20:01 AM 36.4186 -76.6347 36° Northeast 501 577 33,000 -153 Level Washington Center
Wed 07:21:01 AM 36.5300 -76.5356 36° Northeast 496 571 32,700 -900 Descending Washington Center
Wed 07:22:01 AM 36.6414 -76.4333 37° Northeast 496 571 31,200 -1,388 Descending Washington Center
Wed 07:23:02 AM 36.7653 -76.3153 35° Northeast 501 577 29,900 -1,091 Descending Washington Center
Wed 07:24:02 AM 36.8806 -76.2125 24° Northeast 501 577 29,000 -446 Descending Washington Center
Wed 07:25:03 AM 37.0039 -76.1433 23° Northeast 487 560 29,000  Level Washington Center
Wed 07:26:03 AM 37.1272 -76.0789 31° Northeast 474 545 29,000  Level Washington Center
Wed 07:27:27 AM 37.2902 -75.9569 27° Northeast 480 552 29,000  Level FlightAware ADS-B
Wed 07:27:58 AM 37.3503 -75.9177 27° Northeast 481 554 29,000  Level FlightAware ADS-B
Wed 07:28:29 AM 37.4121 -75.8781 27° Northeast 480 552 29,000  Level FlightAware ADS-B
Wed 07:29:01 AM 37.4754 -75.8377 27° Northeast 479 551 29,000  Level FlightAware ADS-B
Wed 07:29:33 AM 37.5391 -75.7974 27° Northeast 478 550 29,000  Level FlightAware ADS-B
Wed 07:30:03 AM 37.5986 -75.7595 27° Northeast 477 549 29,000  Level FlightAware ADS-B
Wed 07:30:34 AM 37.6599 -75.7200 27° Northeast 476 548 29,000  Level FlightAware ADS-B
Wed 07:31:06 AM 37.7231 -75.6793 27° Northeast 476 548 29,000  Level FlightAware ADS-B
Wed 07:31:37 AM 37.7823 -75.6410 27° Northeast 477 549 29,000  Level FlightAware ADS-B
Wed 07:32:24 AM 37.8759 -75.5803 27° Northeast 477 549 29,000  Level FlightAware ADS-B
Wed 07:33:00 AM 37.9465 -75.5345 27° Northeast 476 548 29,000  Level FlightAware ADS-B
Wed 07:33:33 AM 38.0096 -75.4934 27° Northeast 476 548 29,000  Level FlightAware ADS-B
Wed 07:34:03 AM 38.0683 -75.4551 27° Northeast 475 547 29,000 -500 Level FlightAware ADS-B
Wed 07:34:33 AM 38.1286 -75.4160 27° Northeast 473 544 28,500 -1,967 Descending FlightAware ADS-B
Wed 07:35:04 AM 38.1882 -75.3770 27° Northeast 470 541 27,000 -3,246 Descending FlightAware ADS-B
Wed 07:35:34 AM 38.2470 -75.3382 27° Northeast 472 543 25,200 -3,344 Descending FlightAware ADS-B
Wed 07:36:05 AM 38.3056 -75.2996 27° Northeast 464 534 23,600 -2,957 Descending FlightAware ADS-B
Wed 07:36:43 AM 38.3761 -75.2529 27° Northeast 454 522 21,800 -2,824 Descending FlightAware ADS-B
Wed 07:37:13 AM 38.4316 -75.2162 27° Northeast 438 504 20,400 -2,800 Descending FlightAware ADS-B
Wed 07:37:43 AM 38.4851 -75.1808 27° Northeast 427 491 19,000 -2,754 Descending FlightAware ADS-B
Wed 07:38:14 AM 38.5392 -75.1453 27° Northeast 416 479 17,600 -2,727 Descending FlightAware ADS-B
Wed 07:38:49 AM 38.5981 -75.1063 13° North 415 478 16,000 -1,531 Descending FlightAware ADS-B
Wed 07:39:52 AM 38.7110 -75.0732 North 401 461 15,100 -574 Descending FlightAware ADS-B
Wed 07:40:23 AM 38.7692 -75.0658 North 400 460 15,100 -100 Level FlightAware ADS-B
Wed 07:40:52 AM 38.8223 -75.0593 North 401 461 15,000 -632 Descending FlightAware ADS-B
Wed 07:41:01 AM 38.8392 -75.0570 North 404 465 14,700 -1,650 Descending FlightAware ADS-B
Wed 07:41:32 AM 38.8969 -75.0495 North 397 457 13,900 -1,429 Descending FlightAware ADS-B
Wed 07:42:04 AM 38.9538 -75.0416 North 397 457 13,200 -1,245 Descending FlightAware ADS-B
Wed 07:42:25 AM 38.9930 -75.0363 North 393 452 12,800 -1,269 Descending FlightAware ADS-B
Wed 07:42:56 AM 39.0478 -75.0289 North 388 447 12,100 -1,322 Descending FlightAware ADS-B
Wed 07:43:24 AM 39.0971 -75.0224 North 386 444 11,500 -1,241 Descending FlightAware ADS-B
Wed 07:43:54 AM 39.1515 -75.0153 North 379 436 10,900 -1,100 Descending FlightAware ADS-B
Wed 07:44:24 AM 39.2034 -75.0085 North 368 423 10,400 -689 Descending FlightAware ADS-B
Wed 07:44:55 AM 39.2525 -75.0018 North 332 382 10,200 -295 Descending FlightAware ADS-B
Wed 07:45:25 AM 39.2966 -74.9959 North 304 350 10,100 -261 Descending FlightAware ADS-B
Wed 07:45:41 AM 39.3187 -74.9929 North 291 335 10,000 -686 Descending FlightAware ADS-B
Wed 07:46:00 AM 39.3431 -74.9896 North 282 325 9,700 -1,091 Descending FlightAware ADS-B
Wed 07:46:25 AM 39.3755 -74.9850 North 275 316 9,200 -1,171 Descending FlightAware ADS-B
Wed 07:46:41 AM 39.3949 -74.9822 North 270 311 8,900 -1,161 Descending FlightAware ADS-B
Wed 07:46:56 AM 39.4141 -74.9793 North 267 307 8,600 -1,355 Descending FlightAware ADS-B
Wed 07:47:12 AM 39.4337 -74.9766 North 264 304 8,200 -909 Descending FlightAware ADS-B
Wed 07:47:29 AM 39.4536 -74.9740 North 263 303 8,100 -188 Descending FlightAware ADS-B
Wed 07:47:44 AM 39.4720 -74.9716 North 265 305 8,100 -194 Level FlightAware ADS-B
Wed 07:48:00 AM 39.4921 -74.9690 North 266 306 8,000 -375 Descending FlightAware ADS-B
Wed 07:48:16 AM 39.5120 -74.9666 North 266 306 7,900 -900 Descending FlightAware ADS-B
Wed 07:49:00 AM 39.5645 -74.9613 North 263 303 7,100 -1,322 Descending FlightAware ADS-B
Wed 07:49:15 AM 39.5839 -74.9592 North 264 304 6,600 -1,622 Descending FlightAware ADS-B
Wed 07:49:37 AM 39.6095 -74.9565 North 262 302 6,100 -769 Descending FlightAware ADS-B
Wed 07:49:54 AM 39.6308 -74.9542 North 261 300 6,100  Level FlightAware ADS-B
Wed 07:50:11 AM 39.6517 -74.9518 North 262 302 6,100 -364 Level FlightAware ADS-B
Wed 07:50:27 AM 39.6697 -74.9498 North 258 297 5,900 -968 Descending FlightAware ADS-B
Wed 07:50:42 AM 39.6879 -74.9477 North 256 295 5,600 -1,400 Descending FlightAware ADS-B
Wed 07:50:57 AM 39.7061 -74.9455 North 256 295 5,200 -1,548 Descending FlightAware ADS-B
Wed 07:51:13 AM 39.7245 -74.9432 North 254 292 4,800 -1,355 Descending FlightAware ADS-B
Wed 07:51:28 AM 39.7427 -74.9410 North 250 288 4,500 -811 Descending FlightAware ADS-B
Wed 07:51:50 AM 39.7667 -74.9381 North 239 275 4,300 -649 Descending FlightAware ADS-B
Wed 07:52:05 AM 39.7835 -74.9362 North 229 264 4,100 -581 Descending FlightAware ADS-B
Wed 07:52:21 AM 39.7997 -74.9341 North 218 251 4,000  Descending FlightAware ADS-B
Wed 07:52:26 AM 39.8052 -74.9335 North 212 244 4,100 545 Climbing FlightAware ADS-B
Wed 07:52:32 AM 39.8103 -74.9333 356° North 205 236 4,100  Level FlightAware ADS-B
Wed 07:52:40 AM 39.8181 -74.9340 352° North 196 226 4,100  Level FlightAware ADS-B
Wed 07:52:58 AM 39.8335 -74.9369 351° North 181 208 4,100  Level FlightAware ADS-B
Wed 07:53:25 AM 39.8548 -74.9412 351° North 170 196 4,100  Level FlightAware ADS-B
Wed 07:53:35 AM 39.8627 -74.9429 346° North 172 198 4,100  Level FlightAware ADS-B
Wed 07:53:39 AM 39.8658 -74.9439 339° North 172 198 4,100  Level FlightAware ADS-B
Wed 07:53:43 AM 39.8682 -74.9451 330° Northwest 173 199 4,100 -667 Level FlightAware ADS-B
Wed 07:53:48 AM 39.8716 -74.9477 317° Northwest 173 199 4,000 -750 Descending FlightAware ADS-B
Wed 07:53:51 AM 39.8739 -74.9505 307° West 174 200 4,000 -857 Level FlightAware ADS-B
Wed 07:53:55 AM 39.8759 -74.9539 298° West 174 200 3,900 -667 Descending FlightAware ADS-B
Wed 07:54:00 AM 39.8774 -74.9576 292° West 174 200 3,900 -750 Level FlightAware ADS-B
Wed 07:54:03 AM 39.8785 -74.9612 285° West 173 199 3,800 -1,263 Descending FlightAware ADS-B
Wed 07:54:19 AM 39.8817 -74.9766 283° West 171 197 3,500 -1,313 Descending FlightAware ADS-B
Wed 07:54:35 AM 39.8845 -74.9923 282° West 171 197 3,100 -1,313 Descending FlightAware ADS-B
Wed 07:54:51 AM 39.8872 -75.0090 282° West 171 197 2,800 -1,091 Descending FlightAware ADS-B
Wed 07:55:08 AM 39.8900 -75.0255 279° West 172 198 2,500 -1,059 Descending FlightAware ADS-B
Wed 07:55:25 AM 39.8922 -75.0433 276° West 172 198 2,200 -692 Descending FlightAware ADS-B
Wed 07:55:34 AM 39.8929 -75.0524 272° West 174 200 2,200  Level FlightAware ADS-B
Wed 07:55:41 AM 39.8931 -75.0601 264° West 177 204 2,200  Level FlightAware ADS-B
Wed 07:55:47 AM 39.8926 -75.0660 258° West 180 207 2,200  Level FlightAware ADS-B
Wed 07:55:50 AM 39.8919 -75.0703 255° West 181 208 2,200  Level FlightAware ADS-B
Wed 07:56:00 AM 39.8898 -75.0804 257° West 172 198 2,200 -231 Level FlightAware ADS-B
Wed 07:56:16 AM 39.8871 -75.0952 256° West 159 183 2,100 -563 Descending FlightAware ADS-B
Wed 07:56:32 AM 39.8843 -75.1097 257° West 152 175 1,900 -774 Descending FlightAware ADS-B
Wed 07:56:47 AM 39.8821 -75.1224 255° West 138 159 1,700 -783 Descending FlightAware ADS-B
Wed 07:56:55 AM 39.8807 -75.1293 255° West 131 151 1,600 -706 Descending FlightAware ADS-B
Wed 07:57:04 AM 39.8793 -75.1360 257° West 127 146 1,500 -692 Descending FlightAware ADS-B
Wed 07:57:21 AM 39.8771 -75.1484 256° West 132 152 1,300 -750 Descending FlightAware ADS-B
Wed 07:57:36 AM 39.8749 -75.1602 257° West 128 147 1,100 -783 Descending FlightAware ADS-B
Wed 07:57:44 AM 39.8739 -75.1657 257° West 128 147 1,000 -600 Descending FlightAware ADS-B
Wed 07:57:56 AM 39.8723 -75.1746 256° West 129 148 900 -522 Descending FlightAware ADS-B
Wed 07:58:07 AM 39.8706 -75.1832 256° West 127 146 800 -750 Descending FlightAware ADS-B
Wed 07:58:28 AM 39.8677 -75.1987 256° West 130 150 500 -857 Descending FlightAware ADS-B

Login

Don't have an account? Register now (free) for customized features, flight alerts, and more!